Terminal Aerodrome Forecast
Issued by NWS Mt. Holly, NJ

Home | Current Version | Previous Version | Text Only | Print | Product List | Glossary On
Versions: 1 2 3 4 5 6 7 8 9 10 11 12 13 14 15 16 17 18 19 20 21 22
000
FTUS41 KPHI 291512 AAA
TAFACY
TAF AMD
KACY 291512Z 2915/3012 07016G28KT P6SM -RA OVC011
      TEMPO 2915/2919 3SM RADZ BR BKN008 OVC015
     FM292100 06017G27KT P6SM -SHRA OVC007
     FM300700 05017G25KT 4SM RA OVC006=

USA.gov is the U.S. government's official web portal to all federal, state and local government web resources and services.